sensor_id;sensor_type;location;lat;lon;timestamp;P1;durP1;ratioP1;P2;durP2;ratioP2
16928;SDS011;8581;47.334;11.190;2022-07-04T00:01:28;3.23;;;1.80;;
16928;SDS011;8581;47.334;11.190;2022-07-04T00:04:00;2.80;;;2.07;;
16928;SDS011;8581;47.334;11.190;2022-07-04T00:06:31;2.87;;;2.10;;
16928;SDS011;8581;47.334;11.190;2022-07-04T00:09:03;4.07;;;2.30;;
16928;SDS011;8581;47.334;11.190;2022-07-04T00:11:34;2.33;;;1.90;;
16928;SDS011;8581;47.334;11.190;2022-07-04T00:14:06;2.73;;;1.80;;
16928;SDS011;8581;47.334;11.190;2022-07-04T00:16:37;5.90;;;2.33;;
16928;SDS011;8581;47.334;11.190;2022-07-04T00:19:09;2.87;;;2.30;;
16928;SDS011;8581;47.334;11.190;2022-07-04T00:21:41;5.13;;;2.60;;
16928;SDS011;8581;47.334;11.190;2022-07-04T00:24:12;4.43;;;2.40;;
16928;SDS011;8581;47.334;11.190;2022-07-04T00:26:44;3.97;;;2.50;;
16928;SDS011;8581;47.334;11.190;2022-07-04T00:29:15;2.50;;;2.30;;
16928;SDS011;8581;47.334;11.190;2022-07-04T00:31:47;4.03;;;2.90;;
16928;SDS011;8581;47.334;11.190;2022-07-04T00:34:19;3.93;;;2.43;;
16928;SDS011;8581;47.334;11.190;2022-07-04T00:36:50;3.07;;;2.77;;
16928;SDS011;8581;47.334;11.190;2022-07-04T00:39:22;4.90;;;2.90;;
16928;SDS011;8581;47.334;11.190;2022-07-04T00:41:53;2.90;;;2.37;;
16928;SDS011;8581;47.334;11.190;2022-07-04T00:44:25;3.53;;;2.60;;
16928;SDS011;8581;47.334;11.190;2022-07-04T00:46:57;4.07;;;2.57;;
16928;SDS011;8581;47.334;11.190;2022-07-04T00:49:28;2.63;;;2.43;;
16928;SDS011;8581;47.334;11.190;2022-07-04T00:52:00;5.37;;;2.80;;
16928;SDS011;8581;47.334;11.190;2022-07-04T00:54:32;3.57;;;2.20;;
16928;SDS011;8581;47.334;11.190;2022-07-04T00:57:03;1.90;;;1.80;;
16928;SDS011;8581;47.334;11.190;2022-07-04T00:59:35;2.40;;;1.90;;
16928;SDS011;8581;47.334;11.190;2022-07-04T01:02:06;1.80;;;1.70;;
16928;SDS011;8581;47.334;11.190;2022-07-04T01:04:38;3.13;;;1.83;;
16928;SDS011;8581;47.334;11.190;2022-07-04T01:07:10;4.50;;;2.40;;
16928;SDS011;8581;47.334;11.190;2022-07-04T01:09:41;2.67;;;2.47;;
16928;SDS011;8581;47.334;11.190;2022-07-04T01:12:23;2.67;;;2.33;;
16928;SDS011;8581;47.334;11.190;2022-07-04T01:14:44;3.47;;;2.80;;
16928;SDS011;8581;47.334;11.190;2022-07-04T01:17:16;3.20;;;2.60;;
16928;SDS011;8581;47.334;11.190;2022-07-04T01:19:48;4.00;;;2.43;;
16928;SDS011;8581;47.334;11.190;2022-07-04T01:22:19;1.70;;;1.60;;
16928;SDS011;8581;47.334;11.190;2022-07-04T01:24:51;2.27;;;2.07;;
16928;SDS011;8581;47.334;11.190;2022-07-04T01:27:22;2.83;;;2.40;;
16928;SDS011;8581;47.334;11.190;2022-07-04T01:29:54;2.93;;;2.20;;
16928;SDS011;8581;47.334;11.190;2022-07-04T01:32:26;4.10;;;2.17;;
16928;SDS011;8581;47.334;11.190;2022-07-04T01:34:57;3.80;;;2.20;;
16928;SDS011;8581;47.334;11.190;2022-07-04T01:37:29;2.53;;;2.00;;
16928;SDS011;8581;47.334;11.190;2022-07-04T01:40:01;3.27;;;2.20;;
16928;SDS011;8581;47.334;11.190;2022-07-04T01:42:32;3.17;;;2.60;;
16928;SDS011;8581;47.334;11.190;2022-07-04T01:45:04;4.10;;;3.20;;
16928;SDS011;8581;47.334;11.190;2022-07-04T01:47:37;3.37;;;3.00;;
16928;SDS011;8581;47.334;11.190;2022-07-04T01:50:09;3.97;;;3.03;;
16928;SDS011;8581;47.334;11.190;2022-07-04T01:52:40;3.80;;;3.37;;
16928;SDS011;8581;47.334;11.190;2022-07-04T01:55:12;4.03;;;2.60;;
16928;SDS011;8581;47.334;11.190;2022-07-04T01:57:43;4.23;;;3.13;;
16928;SDS011;8581;47.334;11.190;2022-07-04T02:00:15;3.60;;;3.27;;
16928;SDS011;8581;47.334;11.190;2022-07-04T02:02:52;3.43;;;2.93;;
16928;SDS011;8581;47.334;11.190;2022-07-04T02:05:24;6.37;;;3.47;;
16928;SDS011;8581;47.334;11.190;2022-07-04T02:07:55;5.87;;;3.30;;
16928;SDS011;8581;47.334;11.190;2022-07-04T02:10:27;4.17;;;3.60;;
16928;SDS011;8581;47.334;11.190;2022-07-04T02:12:59;3.97;;;3.60;;
16928;SDS011;8581;47.334;11.190;2022-07-04T02:15:35;4.30;;;3.57;;
16928;SDS011;8581;47.334;11.190;2022-07-04T02:18:06;4.20;;;3.50;;
16928;SDS011;8581;47.334;11.190;2022-07-04T02:20:37;4.37;;;2.93;;
16928;SDS011;8581;47.334;11.190;2022-07-04T02:23:09;3.37;;;3.03;;
16928;SDS011;8581;47.334;11.190;2022-07-04T02:25:41;3.23;;;2.93;;
16928;SDS011;8581;47.334;11.190;2022-07-04T02:28:12;3.77;;;3.30;;
16928;SDS011;8581;47.334;11.190;2022-07-04T02:30:44;4.40;;;3.87;;
16928;SDS011;8581;47.334;11.190;2022-07-04T02:33:15;4.17;;;3.77;;
16928;SDS011;8581;47.334;11.190;2022-07-04T02:35:47;4.30;;;3.50;;
16928;SDS011;8581;47.334;11.190;2022-07-04T02:38:19;4.00;;;3.70;;
16928;SDS011;8581;47.334;11.190;2022-07-04T02:40:50;3.20;;;3.00;;
16928;SDS011;8581;47.334;11.190;2022-07-04T02:43:22;3.67;;;3.37;;
16928;SDS011;8581;47.334;11.190;2022-07-04T02:45:53;5.33;;;3.53;;
16928;SDS011;8581;47.334;11.190;2022-07-04T02:48:25;3.60;;;3.27;;
16928;SDS011;8581;47.334;11.190;2022-07-04T02:50:57;3.70;;;3.40;;
16928;SDS011;8581;47.334;11.190;2022-07-04T02:53:28;3.50;;;3.20;;
16928;SDS011;8581;47.334;11.190;2022-07-04T02:56:00;3.63;;;3.23;;
16928;SDS011;8581;47.334;11.190;2022-07-04T02:58:32;3.77;;;2.57;;
16928;SDS011;8581;47.334;11.190;2022-07-04T03:01:03;2.90;;;2.43;;
16928;SDS011;8581;47.334;11.190;2022-07-04T03:03:35;4.40;;;2.53;;
16928;SDS011;8581;47.334;11.190;2022-07-04T03:06:07;2.13;;;1.93;;
16928;SDS011;8581;47.334;11.190;2022-07-04T03:08:38;2.90;;;2.70;;
16928;SDS011;8581;47.334;11.190;2022-07-04T03:11:09;4.47;;;2.63;;
16928;SDS011;8581;47.334;11.190;2022-07-04T03:13:41;2.87;;;2.67;;
16928;SDS011;8581;47.334;11.190;2022-07-04T03:16:13;2.83;;;2.63;;
16928;SDS011;8581;47.334;11.190;2022-07-04T03:18:44;3.17;;;2.87;;
16928;SDS011;8581;47.334;11.190;2022-07-04T03:21:16;2.60;;;2.40;;
16928;SDS011;8581;47.334;11.190;2022-07-04T03:23:47;3.10;;;2.80;;
16928;SDS011;8581;47.334;11.190;2022-07-04T03:26:26;3.67;;;2.67;;
16928;SDS011;8581;47.334;11.190;2022-07-04T03:28:58;4.20;;;2.70;;
16928;SDS011;8581;47.334;11.190;2022-07-04T03:31:29;2.50;;;2.30;;
16928;SDS011;8581;47.334;11.190;2022-07-04T03:34:01;2.60;;;2.40;;
16928;SDS011;8581;47.334;11.190;2022-07-04T03:36:32;2.77;;;2.37;;
16928;SDS011;8581;47.334;11.190;2022-07-04T03:39:04;2.80;;;2.50;;
16928;SDS011;8581;47.334;11.190;2022-07-04T03:41:35;2.70;;;2.50;;
16928;SDS011;8581;47.334;11.190;2022-07-04T03:44:07;3.93;;;2.27;;
16928;SDS011;8581;47.334;11.190;2022-07-04T03:46:39;2.80;;;2.60;;
16928;SDS011;8581;47.334;11.190;2022-07-04T03:49:10;2.53;;;2.33;;
16928;SDS011;8581;47.334;11.190;2022-07-04T03:51:42;3.10;;;2.90;;
16928;SDS011;8581;47.334;11.190;2022-07-04T03:54:13;2.77;;;2.00;;
16928;SDS011;8581;47.334;11.190;2022-07-04T03:56:45;3.23;;;2.40;;
16928;SDS011;8581;47.334;11.190;2022-07-04T03:59:17;2.57;;;2.37;;
16928;SDS011;8581;47.334;11.190;2022-07-04T04:01:48;2.47;;;2.23;;
16928;SDS011;8581;47.334;11.190;2022-07-04T04:04:20;2.03;;;1.90;;
16928;SDS011;8581;47.334;11.190;2022-07-04T04:06:57;2.10;;;1.90;;
16928;SDS011;8581;47.334;11.190;2022-07-04T04:09:29;2.67;;;2.10;;
16928;SDS011;8581;47.334;11.190;2022-07-04T04:12:00;2.30;;;2.00;;
16928;SDS011;8581;47.334;11.190;2022-07-04T04:14:32;2.10;;;1.90;;
16928;SDS011;8581;47.334;11.190;2022-07-04T04:17:04;2.40;;;2.23;;
16928;SDS011;8581;47.334;11.190;2022-07-04T04:19:35;2.63;;;2.43;;
16928;SDS011;8581;47.334;11.190;2022-07-04T04:22:07;2.53;;;2.33;;
16928;SDS011;8581;47.334;11.190;2022-07-04T04:24:38;2.90;;;2.00;;
16928;SDS011;8581;47.334;11.190;2022-07-04T04:27:10;2.40;;;2.13;;
16928;SDS011;8581;47.334;11.190;2022-07-04T04:29:41;3.60;;;2.07;;
16928;SDS011;8581;47.334;11.190;2022-07-04T04:32:13;2.20;;;2.10;;
16928;SDS011;8581;47.334;11.190;2022-07-04T04:34:45;2.40;;;2.20;;
16928;SDS011;8581;47.334;11.190;2022-07-04T04:37:16;2.33;;;2.00;;
16928;SDS011;8581;47.334;11.190;2022-07-04T04:39:48;2.43;;;2.23;;
16928;SDS011;8581;47.334;11.190;2022-07-04T04:42:19;2.47;;;1.90;;
16928;SDS011;8581;47.334;11.190;2022-07-04T04:44:51;2.13;;;1.90;;
16928;SDS011;8581;47.334;11.190;2022-07-04T04:47:23;2.57;;;2.10;;
16928;SDS011;8581;47.334;11.190;2022-07-04T04:49:54;3.23;;;1.90;;
16928;SDS011;8581;47.334;11.190;2022-07-04T04:52:26;3.10;;;1.90;;
16928;SDS011;8581;47.334;11.190;2022-07-04T04:54:57;2.20;;;2.00;;
16928;SDS011;8581;47.334;11.190;2022-07-04T04:57:29;1.90;;;1.80;;
16928;SDS011;8581;47.334;11.190;2022-07-04T05:00:01;1.90;;;1.80;;
16928;SDS011;8581;47.334;11.190;2022-07-04T05:02:32;2.80;;;1.80;;
16928;SDS011;8581;47.334;11.190;2022-07-04T05:05:04;3.90;;;1.70;;
16928;SDS011;8581;47.334;11.190;2022-07-04T05:07:36;2.03;;;1.83;;
16928;SDS011;8581;47.334;11.190;2022-07-04T05:10:08;2.27;;;1.90;;
16928;SDS011;8581;47.334;11.190;2022-07-04T05:12:40;2.37;;;1.90;;
16928;SDS011;8581;47.334;11.190;2022-07-04T05:15:11;2.53;;;1.73;;
16928;SDS011;8581;47.334;11.190;2022-07-04T05:17:43;4.03;;;1.70;;
16928;SDS011;8581;47.334;11.190;2022-07-04T05:20:15;2.93;;;2.00;;
16928;SDS011;8581;47.334;11.190;2022-07-04T05:22:46;3.30;;;1.80;;
16928;SDS011;8581;47.334;11.190;2022-07-04T05:25:18;1.80;;;1.70;;
16928;SDS011;8581;47.334;11.190;2022-07-04T05:27:49;2.60;;;1.70;;
16928;SDS011;8581;47.334;11.190;2022-07-04T05:30:21;2.00;;;1.90;;
16928;SDS011;8581;47.334;11.190;2022-07-04T05:32:53;2.50;;;1.80;;
16928;SDS011;8581;47.334;11.190;2022-07-04T05:35:24;1.50;;;1.40;;
16928;SDS011;8581;47.334;11.190;2022-07-04T05:37:56;1.70;;;1.60;;
16928;SDS011;8581;47.334;11.190;2022-07-04T05:40:28;2.00;;;1.50;;
16928;SDS011;8581;47.334;11.190;2022-07-04T05:42:59;2.10;;;1.70;;
16928;SDS011;8581;47.334;11.190;2022-07-04T05:45:31;2.83;;;1.93;;
16928;SDS011;8581;47.334;11.190;2022-07-04T05:48:02;1.90;;;1.80;;
16928;SDS011;8581;47.334;11.190;2022-07-04T05:50:34;1.70;;;1.60;;
16928;SDS011;8581;47.334;11.190;2022-07-04T05:53:06;2.00;;;1.80;;
16928;SDS011;8581;47.334;11.190;2022-07-04T05:55:37;2.07;;;1.50;;
16928;SDS011;8581;47.334;11.190;2022-07-04T05:58:09;1.53;;;1.40;;
16928;SDS011;8581;47.334;11.190;2022-07-04T06:00:40;1.70;;;1.60;;
16928;SDS011;8581;47.334;11.190;2022-07-04T06:03:12;1.30;;;1.20;;
16928;SDS011;8581;47.334;11.190;2022-07-04T06:05:44;2.03;;;1.30;;
16928;SDS011;8581;47.334;11.190;2022-07-04T06:08:15;1.73;;;1.37;;
16928;SDS011;8581;47.334;11.190;2022-07-04T06:10:47;1.73;;;1.63;;
16928;SDS011;8581;47.334;11.190;2022-07-04T06:13:18;2.00;;;1.60;;
16928;SDS011;8581;47.334;11.190;2022-07-04T06:15:50;1.83;;;1.40;;
16928;SDS011;8581;47.334;11.190;2022-07-04T06:18:22;1.80;;;1.50;;
16928;SDS011;8581;47.334;11.190;2022-07-04T06:20:53;2.77;;;1.50;;
16928;SDS011;8581;47.334;11.190;2022-07-04T06:23:25;1.20;;;1.17;;
16928;SDS011;8581;47.334;11.190;2022-07-04T06:25:56;1.90;;;1.53;;
16928;SDS011;8581;47.334;11.190;2022-07-04T06:28:28;2.00;;;1.40;;
16928;SDS011;8581;47.334;11.190;2022-07-04T06:31:00;1.50;;;1.40;;
16928;SDS011;8581;47.334;11.190;2022-07-04T06:33:31;1.47;;;1.37;;
16928;SDS011;8581;47.334;11.190;2022-07-04T06:36:03;2.40;;;1.70;;
16928;SDS011;8581;47.334;11.190;2022-07-04T06:38:34;3.40;;;1.73;;
16928;SDS011;8581;47.334;11.190;2022-07-04T06:41:06;1.50;;;1.40;;
16928;SDS011;8581;47.334;11.190;2022-07-04T06:43:38;3.00;;;1.50;;
16928;SDS011;8581;47.334;11.190;2022-07-04T06:46:09;1.60;;;1.50;;
16928;SDS011;8581;47.334;11.190;2022-07-04T06:48:41;1.53;;;1.40;;
16928;SDS011;8581;47.334;11.190;2022-07-04T06:51:12;1.80;;;1.60;;
16928;SDS011;8581;47.334;11.190;2022-07-04T06:53:44;3.17;;;1.60;;
16928;SDS011;8581;47.334;11.190;2022-07-04T06:56:16;2.07;;;1.40;;
16928;SDS011;8581;47.334;11.190;2022-07-04T06:58:47;2.20;;;1.50;;
16928;SDS011;8581;47.334;11.190;2022-07-04T07:01:19;4.58;;;1.60;;
16928;SDS011;8581;47.334;11.190;2022-07-04T07:03:51;4.30;;;1.90;;
16928;SDS011;8581;47.334;11.190;2022-07-04T07:06:22;1.30;;;1.20;;
16928;SDS011;8581;47.334;11.190;2022-07-04T07:08:54;1.67;;;1.37;;
16928;SDS011;8581;47.334;11.190;2022-07-04T07:11:25;2.08;;;1.32;;
16928;SDS011;8581;47.334;11.190;2022-07-04T07:13:57;1.60;;;1.50;;
16928;SDS011;8581;47.334;11.190;2022-07-04T07:16:29;1.92;;;1.70;;
16928;SDS011;8581;47.334;11.190;2022-07-04T07:19:00;2.33;;;1.57;;
16928;SDS011;8581;47.334;11.190;2022-07-04T07:21:32;1.60;;;1.50;;
16928;SDS011;8581;47.334;11.190;2022-07-04T07:24:03;1.70;;;1.60;;
16928;SDS011;8581;47.334;11.190;2022-07-04T07:26:35;1.80;;;1.70;;
16928;SDS011;8581;47.334;11.190;2022-07-04T07:29:07;2.33;;;1.90;;
16928;SDS011;8581;47.334;11.190;2022-07-04T07:31:38;4.83;;;2.00;;
16928;SDS011;8581;47.334;11.190;2022-07-04T07:34:10;2.23;;;2.00;;
16928;SDS011;8581;47.334;11.190;2022-07-04T07:36:41;1.80;;;1.70;;
16928;SDS011;8581;47.334;11.190;2022-07-04T07:39:13;1.60;;;1.50;;
16928;SDS011;8581;47.334;11.190;2022-07-04T07:41:45;2.23;;;1.50;;
16928;SDS011;8581;47.334;11.190;2022-07-04T07:44:16;1.20;;;1.10;;
16928;SDS011;8581;47.334;11.190;2022-07-04T07:46:48;1.40;;;1.23;;
16928;SDS011;8581;47.334;11.190;2022-07-04T07:49:19;4.50;;;2.00;;
16928;SDS011;8581;47.334;11.190;2022-07-04T07:51:51;1.60;;;1.50;;
16928;SDS011;8581;47.334;11.190;2022-07-04T07:54:23;4.37;;;2.27;;
16928;SDS011;8581;47.334;11.190;2022-07-04T07:56:54;1.70;;;1.60;;
16928;SDS011;8581;47.334;11.190;2022-07-04T07:59:26;1.80;;;1.50;;
16928;SDS011;8581;47.334;11.190;2022-07-04T08:01:57;3.80;;;1.52;;
16928;SDS011;8581;47.334;11.190;2022-07-04T08:04:29;1.70;;;1.60;;
16928;SDS011;8581;47.334;11.190;2022-07-04T08:07:06;1.70;;;1.40;;
16928;SDS011;8581;47.334;11.190;2022-07-04T08:09:36;1.50;;;1.40;;
16928;SDS011;8581;47.334;11.190;2022-07-04T08:12:08;1.40;;;1.30;;
16928;SDS011;8581;47.334;11.190;2022-07-04T08:14:39;2.80;;;1.62;;
16928;SDS011;8581;47.334;11.190;2022-07-04T08:17:11;1.85;;;1.20;;
16928;SDS011;8581;47.334;11.190;2022-07-04T08:19:43;1.40;;;1.30;;
16928;SDS011;8581;47.334;11.190;2022-07-04T08:22:14;2.17;;;1.27;;
16928;SDS011;8581;47.334;11.190;2022-07-04T08:24:46;4.97;;;1.30;;
16928;SDS011;8581;47.334;11.190;2022-07-04T08:27:17;2.45;;;1.10;;
16928;SDS011;8581;47.334;11.190;2022-07-04T08:29:49;1.92;;;0.95;;
16928;SDS011;8581;47.334;11.190;2022-07-04T08:32:21;1.20;;;1.10;;
16928;SDS011;8581;47.334;11.190;2022-07-04T08:34:52;1.30;;;1.05;;
16928;SDS011;8581;47.334;11.190;2022-07-04T08:37:24;1.40;;;1.15;;
16928;SDS011;8581;47.334;11.190;2022-07-04T08:39:55;1.20;;;1.10;;
16928;SDS011;8581;47.334;11.190;2022-07-04T08:42:27;3.15;;;1.10;;
16928;SDS011;8581;47.334;11.190;2022-07-04T08:44:59;1.77;;;1.00;;
16928;SDS011;8581;47.334;11.190;2022-07-04T08:47:32;1.17;;;1.10;;
16928;SDS011;8581;47.334;11.190;2022-07-04T08:50:11;1.27;;;1.15;;
16928;SDS011;8581;47.334;11.190;2022-07-04T08:52:45;1.10;;;0.95;;
16928;SDS011;8581;47.334;11.190;2022-07-04T08:55:14;1.67;;;1.57;;
16928;SDS011;8581;47.334;11.190;2022-07-04T08:57:52;1.70;;;1.40;;
16928;SDS011;8581;47.334;11.190;2022-07-04T09:00:29;1.65;;;1.55;;
16928;SDS011;8581;47.334;11.190;2022-07-04T09:03:01;1.50;;;1.30;;
16928;SDS011;8581;47.334;11.190;2022-07-04T09:05:32;1.42;;;1.32;;
16928;SDS011;8581;47.334;11.190;2022-07-04T09:08:04;1.67;;;1.45;;
16928;SDS011;8581;47.334;11.190;2022-07-04T09:10:35;1.50;;;1.20;;
16928;SDS011;8581;47.334;11.190;2022-07-04T09:13:08;3.12;;;1.40;;
16928;SDS011;8581;47.334;11.190;2022-07-04T09:15:39;3.13;;;1.60;;
16928;SDS011;8581;47.334;11.190;2022-07-04T09:20:50;1.65;;;1.30;;
16928;SDS011;8581;47.334;11.190;2022-07-04T09:23:23;3.05;;;1.35;;
16928;SDS011;8581;47.334;11.190;2022-07-04T09:28:38;1.87;;;1.37;;
16928;SDS011;8581;47.334;11.190;2022-07-04T09:31:13;1.60;;;1.50;;
16928;SDS011;8581;47.334;11.190;2022-07-04T09:33:48;1.70;;;1.60;;
16928;SDS011;8581;47.334;11.190;2022-07-04T09:36:20;2.07;;;1.87;;
16928;SDS011;8581;47.334;11.190;2022-07-04T09:44:19;2.93;;;1.90;;
16928;SDS011;8581;47.334;11.190;2022-07-04T09:46:51;3.43;;;2.10;;
16928;SDS011;8581;47.334;11.190;2022-07-04T09:49:22;5.13;;;2.27;;
16928;SDS011;8581;47.334;11.190;2022-07-04T09:51:54;4.23;;;2.33;;
16928;SDS011;8581;47.334;11.190;2022-07-04T09:54:26;3.50;;;2.50;;
16928;SDS011;8581;47.334;11.190;2022-07-04T09:56:59;2.53;;;2.30;;
16928;SDS011;8581;47.334;11.190;2022-07-04T09:59:30;6.40;;;2.37;;
16928;SDS011;8581;47.334;11.190;2022-07-04T10:02:08;2.87;;;2.60;;
16928;SDS011;8581;47.334;11.190;2022-07-04T10:04:42;4.77;;;2.37;;
16928;SDS011;8581;47.334;11.190;2022-07-04T10:09:58;3.90;;;3.10;;
16928;SDS011;8581;47.334;11.190;2022-07-04T10:12:30;2.90;;;2.70;;
16928;SDS011;8581;47.334;11.190;2022-07-04T10:15:02;3.97;;;3.00;;
16928;SDS011;8581;47.334;11.190;2022-07-04T10:17:34;3.53;;;3.00;;
16928;SDS011;8581;47.334;11.190;2022-07-04T10:20:06;3.60;;;2.40;;
16928;SDS011;8581;47.334;11.190;2022-07-04T10:22:38;3.03;;;2.53;;
16928;SDS011;8581;47.334;11.190;2022-07-04T10:25:10;4.07;;;2.50;;
16928;SDS011;8581;47.334;11.190;2022-07-04T10:27:41;2.60;;;1.60;;
16928;SDS011;8581;47.334;11.190;2022-07-04T10:30:14;2.67;;;2.07;;
16928;SDS011;8581;47.334;11.190;2022-07-04T10:32:45;2.30;;;1.90;;
16928;SDS011;8581;47.334;11.190;2022-07-04T10:35:16;3.83;;;1.97;;
16928;SDS011;8581;47.334;11.190;2022-07-04T10:45:53;1.90;;;1.80;;
16928;SDS011;8581;47.334;11.190;2022-07-04T10:48:25;2.13;;;1.57;;
16928;SDS011;8581;47.334;11.190;2022-07-04T10:51:00;2.23;;;1.60;;
16928;SDS011;8581;47.334;11.190;2022-07-04T10:53:57;4.43;;;1.90;;
16928;SDS011;8581;47.334;11.190;2022-07-04T10:59:00;2.57;;;1.80;;
16928;SDS011;8581;47.334;11.190;2022-07-04T11:01:32;1.47;;;1.37;;
16928;SDS011;8581;47.334;11.190;2022-07-04T11:04:03;1.90;;;1.70;;
16928;SDS011;8581;47.334;11.190;2022-07-04T11:06:50;2.10;;;1.60;;
16928;SDS011;8581;47.334;11.190;2022-07-04T11:09:22;1.67;;;1.57;;
16928;SDS011;8581;47.334;11.190;2022-07-04T11:11:55;1.65;;;1.55;;
16928;SDS011;8581;47.334;11.190;2022-07-04T11:14:31;1.83;;;1.33;;
16928;SDS011;8581;47.334;11.190;2022-07-04T11:17:20;1.45;;;1.35;;
16928;SDS011;8581;47.334;11.190;2022-07-04T11:19:51;2.03;;;1.50;;
16928;SDS011;8581;47.334;11.190;2022-07-04T11:22:23;1.35;;;1.25;;
16928;SDS011;8581;47.334;11.190;2022-07-04T11:24:54;2.15;;;1.37;;
16928;SDS011;8581;47.334;11.190;2022-07-04T11:27:26;1.20;;;1.10;;
16928;SDS011;8581;47.334;11.190;2022-07-04T11:29:57;1.32;;;1.22;;
16928;SDS011;8581;47.334;11.190;2022-07-04T11:32:30;4.22;;;1.47;;
16928;SDS011;8581;47.334;11.190;2022-07-04T11:35:03;1.30;;;1.20;;
16928;SDS011;8581;47.334;11.190;2022-07-04T11:37:35;2.45;;;1.12;;
16928;SDS011;8581;47.334;11.190;2022-07-04T11:40:07;1.12;;;1.02;;
16928;SDS011;8581;47.334;11.190;2022-07-04T11:45:34;1.30;;;1.10;;
16928;SDS011;8581;47.334;11.190;2022-07-04T11:48:06;0.90;;;0.90;;
16928;SDS011;8581;47.334;11.190;2022-07-04T11:50:38;1.30;;;1.02;;
16928;SDS011;8581;47.334;11.190;2022-07-04T11:53:09;1.15;;;0.93;;
16928;SDS011;8581;47.334;11.190;2022-07-04T11:55:56;2.45;;;0.95;;
16928;SDS011;8581;47.334;11.190;2022-07-04T12:01:10;1.27;;;0.90;;
16928;SDS011;8581;47.334;11.190;2022-07-04T12:03:41;0.98;;;0.98;;
16928;SDS011;8581;47.334;11.190;2022-07-04T12:06:13;1.80;;;1.05;;
16928;SDS011;8581;47.334;11.190;2022-07-04T12:08:44;1.57;;;1.17;;
16928;SDS011;8581;47.334;11.190;2022-07-04T12:11:16;1.22;;;0.93;;
16928;SDS011;8581;47.334;11.190;2022-07-04T12:13:48;1.20;;;1.02;;
16928;SDS011;8581;47.334;11.190;2022-07-04T12:16:19;1.32;;;1.00;;
16928;SDS011;8581;47.334;11.190;2022-07-04T12:18:51;1.42;;;1.12;;
16928;SDS011;8581;47.334;11.190;2022-07-04T12:21:22;1.37;;;1.27;;
16928;SDS011;8581;47.334;11.190;2022-07-04T12:23:54;2.02;;;1.20;;
16928;SDS011;8581;47.334;11.190;2022-07-04T12:26:25;1.47;;;1.20;;
16928;SDS011;8581;47.334;11.190;2022-07-04T12:28:57;2.85;;;1.40;;
16928;SDS011;8581;47.334;11.190;2022-07-04T12:34:14;1.95;;;1.52;;
16928;SDS011;8581;47.334;11.190;2022-07-04T12:36:48;3.45;;;1.15;;
16928;SDS011;8581;47.334;11.190;2022-07-04T12:44:36;1.47;;;1.12;;
16928;SDS011;8581;47.334;11.190;2022-07-04T12:47:07;1.45;;;1.30;;
16928;SDS011;8581;47.334;11.190;2022-07-04T12:49:42;1.85;;;0.90;;
16928;SDS011;8581;47.334;11.190;2022-07-04T12:52:12;1.47;;;1.00;;
16928;SDS011;8581;47.334;11.190;2022-07-04T12:54:43;1.10;;;0.90;;
16928;SDS011;8581;47.334;11.190;2022-07-04T12:57:16;0.70;;;0.68;;
16928;SDS011;8581;47.334;11.190;2022-07-04T12:59:47;2.75;;;1.00;;
16928;SDS011;8581;47.334;11.190;2022-07-04T13:02:19;2.00;;;0.80;;
16928;SDS011;8581;47.334;11.190;2022-07-04T13:04:51;2.15;;;1.05;;
16928;SDS011;8581;47.334;11.190;2022-07-04T13:07:22;1.00;;;0.82;;
16928;SDS011;8581;47.334;11.190;2022-07-04T13:09:54;1.25;;;1.10;;
16928;SDS011;8581;47.334;11.190;2022-07-04T13:12:25;1.27;;;1.00;;
16928;SDS011;8581;47.334;11.190;2022-07-04T13:14:58;1.02;;;0.90;;
16928;SDS011;8581;47.334;11.190;2022-07-04T13:17:29;1.22;;;0.80;;
16928;SDS011;8581;47.334;11.190;2022-07-04T13:20:01;1.32;;;1.07;;
16928;SDS011;8581;47.334;11.190;2022-07-04T13:22:33;1.62;;;1.10;;
16928;SDS011;8581;47.334;11.190;2022-07-04T13:25:04;2.42;;;1.00;;
16928;SDS011;8581;47.334;11.190;2022-07-04T13:27:36;2.00;;;0.80;;
16928;SDS011;8581;47.334;11.190;2022-07-04T13:30:08;1.25;;;0.90;;
16928;SDS011;8581;47.334;11.190;2022-07-04T13:32:40;0.70;;;0.70;;
16928;SDS011;8581;47.334;11.190;2022-07-04T13:35:11;0.78;;;0.70;;
16928;SDS011;8581;47.334;11.190;2022-07-04T13:37:43;0.80;;;0.80;;
16928;SDS011;8581;47.334;11.190;2022-07-04T13:40:14;0.90;;;0.90;;
16928;SDS011;8581;47.334;11.190;2022-07-04T13:42:46;0.80;;;0.80;;
16928;SDS011;8581;47.334;11.190;2022-07-04T13:45:23;0.80;;;0.80;;
16928;SDS011;8581;47.334;11.190;2022-07-04T13:47:55;0.88;;;0.80;;
16928;SDS011;8581;47.334;11.190;2022-07-04T13:50:27;0.72;;;0.70;;
16928;SDS011;8581;47.334;11.190;2022-07-04T13:52:58;0.78;;;0.70;;
16928;SDS011;8581;47.334;11.190;2022-07-04T13:55:30;0.90;;;0.72;;
16928;SDS011;8581;47.334;11.190;2022-07-04T13:58:02;0.90;;;0.75;;
16928;SDS011;8581;47.334;11.190;2022-07-04T14:00:34;1.67;;;1.37;;
16928;SDS011;8581;47.334;11.190;2022-07-04T14:03:04;1.15;;;0.90;;
16928;SDS011;8581;47.334;11.190;2022-07-04T14:05:36;1.60;;;1.00;;
16928;SDS011;8581;47.334;11.190;2022-07-04T14:08:08;0.93;;;0.88;;
16928;SDS011;8581;47.334;11.190;2022-07-04T14:10:39;1.98;;;0.90;;
16928;SDS011;8581;47.334;11.190;2022-07-04T14:13:11;1.00;;;1.00;;
16928;SDS011;8581;47.334;11.190;2022-07-04T14:15:42;0.85;;;0.80;;
16928;SDS011;8581;47.334;11.190;2022-07-04T14:18:14;0.93;;;0.88;;
16928;SDS011;8581;47.334;11.190;2022-07-04T14:20:46;1.90;;;0.88;;
16928;SDS011;8581;47.334;11.190;2022-07-04T14:23:17;0.90;;;0.90;;
16928;SDS011;8581;47.334;11.190;2022-07-04T14:25:50;2.10;;;0.88;;
16928;SDS011;8581;47.334;11.190;2022-07-04T14:28:22;0.80;;;0.80;;
16928;SDS011;8581;47.334;11.190;2022-07-04T14:30:53;1.85;;;0.90;;
16928;SDS011;8581;47.334;11.190;2022-07-04T14:33:25;1.05;;;0.95;;
16928;SDS011;8581;47.334;11.190;2022-07-04T14:35:56;1.55;;;1.00;;
16928;SDS011;8581;47.334;11.190;2022-07-04T14:38:28;2.55;;;1.00;;
16928;SDS011;8581;47.334;11.190;2022-07-04T14:41:00;1.05;;;0.95;;
16928;SDS011;8581;47.334;11.190;2022-07-04T14:43:32;0.80;;;0.80;;
16928;SDS011;8581;47.334;11.190;2022-07-04T14:46:03;2.20;;;0.80;;
16928;SDS011;8581;47.334;11.190;2022-07-04T14:48:35;1.20;;;0.80;;
16928;SDS011;8581;47.334;11.190;2022-07-04T14:51:07;1.07;;;0.70;;
16928;SDS011;8581;47.334;11.190;2022-07-04T14:53:38;1.15;;;0.80;;
16928;SDS011;8581;47.334;11.190;2022-07-04T14:56:10;1.40;;;1.05;;
16928;SDS011;8581;47.334;11.190;2022-07-04T14:58:41;1.27;;;1.10;;
16928;SDS011;8581;47.334;11.190;2022-07-04T15:01:13;1.10;;;0.98;;
16928;SDS011;8581;47.334;11.190;2022-07-04T15:03:45;1.02;;;1.02;;
16928;SDS011;8581;47.334;11.190;2022-07-04T15:06:16;1.00;;;0.85;;
16928;SDS011;8581;47.334;11.190;2022-07-04T15:08:48;1.10;;;1.00;;
16928;SDS011;8581;47.334;11.190;2022-07-04T15:11:20;2.40;;;0.88;;
16928;SDS011;8581;47.334;11.190;2022-07-04T15:13:52;1.00;;;1.00;;
16928;SDS011;8581;47.334;11.190;2022-07-04T15:16:23;0.90;;;0.90;;
16928;SDS011;8581;47.334;11.190;2022-07-04T15:18:54;1.00;;;0.90;;
16928;SDS011;8581;47.334;11.190;2022-07-04T15:21:26;1.17;;;0.80;;
16928;SDS011;8581;47.334;11.190;2022-07-04T15:24:03;1.75;;;0.80;;
16928;SDS011;8581;47.334;11.190;2022-07-04T15:26:42;2.00;;;0.98;;
16928;SDS011;8581;47.334;11.190;2022-07-04T15:29:13;1.07;;;1.02;;
16928;SDS011;8581;47.334;11.190;2022-07-04T15:31:45;1.62;;;0.90;;
16928;SDS011;8581;47.334;11.190;2022-07-04T15:34:17;1.77;;;1.20;;
16928;SDS011;8581;47.334;11.190;2022-07-04T15:36:48;1.50;;;0.82;;
16928;SDS011;8581;47.334;11.190;2022-07-04T15:39:19;1.52;;;0.90;;
16928;SDS011;8581;47.334;11.190;2022-07-04T15:41:51;0.95;;;0.93;;
16928;SDS011;8581;47.334;11.190;2022-07-04T15:44:23;1.07;;;0.90;;
16928;SDS011;8581;47.334;11.190;2022-07-04T15:46:54;1.10;;;0.80;;
16928;SDS011;8581;47.334;11.190;2022-07-04T15:49:31;1.00;;;0.90;;
16928;SDS011;8581;47.334;11.190;2022-07-04T15:52:04;0.80;;;0.80;;
16928;SDS011;8581;47.334;11.190;2022-07-04T15:54:35;1.35;;;0.90;;